EFMA/MHQ METAR and TAF weather

Enter ICAO airport designator
Station Type Date Time Source
EFMA METAR 2021/09/28 17:20 UTC NOAA

EFMA 281720Z AUTO 13007KT 090V160 9999 BKN044 11/09 Q1029


Station Type Date Time Source
EFMA Decoded METAR 2021/09/28 17:20 UTC NOAA

Mariehamn / Aland Island, Finland (EFMA) 60-07N 019-54E
Sep 28, 2021 - 01:20 PM EDT / 2021.09.28 1720 UTC
Wind: from the SE (130 degrees) at 8 MPH (7 KT) (direction variable):0
Visibility: greater than 7 mile(s):0
Sky conditions: mostly cloudy
Temperature: 51 F (11 C)
Dew Point: 48 F (9 C)
Relative Humidity: 87%
Pressure (altimeter): 30.39 in. Hg (1029 hPa)
ob: EFMA 281720Z AUTO 13007KT 090V160 9999 BKN044 11/09 Q1029
cycle: 17

Station Type Date Time Source
EFMA TAF 2014/05/01 21:18 UTC NOAA

TAF TAF EFMA 302037Z 3021/0106 08008KT CAVOK
TEMPO 3023/0101 02010KT 6000 RASN
BECMG 0101/0103 01012KT 4000 RASN BKN010 OVC025

Example: see airport list